Dousman, WI

8:18 AM CDT on April 19, 2015 (GMT -0500)
Waukesha County | | Change Station
CLOSE
Current Station
Airport
Location: Waukesha,
Elevation: 912 ft
Nearby Weather Stations

Elev 912 ft 43.04 °N, 88.25 °W | Updated 33 minutes ago

Partly Cloudy
Partly Cloudy
46 °F
Feels Like 41 °F
N
12
Wind Variable Wind from East

Today
High -- | Low -- °F
--% Chance of Precip.
Yesterday
High -- | Low -- °F
Precip. -- in
6:06 AM 7:40 PM
New Moon, 1% visible
Pressure 29.90 in
Visibility 10.0 miles
Clouds Scattered Clouds 17000 ft
Mostly Cloudy 27000 ft
Mostly Cloudy 34000 ft
Windchill 41 °F
Dew Point 30 °F
Humidity 53%
Rainfall 0.00 in
Snow Depth Not available.
UV 1 out of 12
Pollen 4.30 out of 12
Air Quality Not available.
Flu Activity Local Activity
METAR KUES 191245Z 09010KT 10SM SCT170 BKN270 BKN340 08/M01 A2990

More Conditions Fewer Conditions

Pressure 29.90 in
Visibility 10.0 miles
Clouds Scattered Clouds 17000 ft
Mostly Cloudy 27000 ft
Mostly Cloudy 34000 ft
Windchill 41 °F
Dew Point 30 °F
Humidity 53%
Rainfall 0.00 in
Snow Depth Not available.
UV 1 out of 12
Pollen 4.30 out of 12
Air Quality Not available.
Flu Activity Local Activity
METAR KUES 191245Z 09010KT 10SM SCT170 BKN270 BKN340 08/M01 A2990

More Conditions Fewer Conditions

10-Day Weather Forecast

Almanac

Astronomy

Apr. 19, 2015 Rise Set
Actual Time
Civil Twilight
Nautical Twilight
Astronomical Twilight
Moon
Length of Visible Light
Length of Day
Tomorrow will be .
, % of the Moon is Illuminated

Today's Extremes

State Highs State Lows

Community

WunderPhotos

Upload Photos

1,814,787 photos uploaded!

WunderBlogs® & News

Nearby

Air Quality

  Air Quality AQ Index Pollutant
Not available.

Snow Depth

Station Depth Elevation

Earthquake Activity

City Distance Mag. Time & Date
Minimum magnitude displayed is 2.5.

Coastal Water Temperatures

Place Temperature

Stations

Nearby Weather Stations

Station Location Temp. Windchill Dew Point Humidity Wind Precip. Elev Updated Type